Time;durP1;ratioP1;P1;durP2;ratioP2;P2;SDS_P1;SDS_P2;PMS_P1;PMS_P2;Temp;Humidity;BMP_temperature;BMP_pressure;BME280_temperature;BME280_humidity;BME280_pressure;Samples;Min_cycle;Max_cycle;Signal;HPM_P1;HPM_P2
2022/02/03 00:02:19;;;;;;;36.03;24.45;;;10.20;99.90;;;;;;5061975;28;20024;-84
2022/02/03 00:04:55;;;;;;;34.72;22.63;;;10.20;99.90;;;;;;5077302;28;20430;-84
2022/02/03 00:07:30;;;;;;;32.25;23.70;;;10.20;99.90;;;;;;5061985;28;20043;-83
2022/02/03 00:26:32;;;;;;;29.52;21.83;;;10.20;99.90;;;;;;5095262;28;20205;-82
2022/02/03 00:29:00;;;;;;;35.63;26.15;;;10.10;99.90;;;;;;5077236;28;20056;-82
2022/02/03 00:31:41;;;;;;;38.63;26.48;;;10.10;99.90;;;;;;5076594;28;20557;-82
2022/02/03 00:34:19;;;;;;;35.53;24.53;;;10.10;99.90;;;;;;5062311;28;20122;-83
2022/02/03 00:50:28;;;;;;;38.53;27.83;;;10.10;99.90;;;;;;5094670;28;20404;-83
2022/02/03 00:52:55;;;;;;;40.50;27.58;;;10.10;99.90;;;;;;5076464;28;20127;-83
2022/02/03 00:55:22;;;;;;;37.63;25.73;;;10.10;99.90;;;;;;5076488;28;20111;-83
2022/02/03 00:57:59;;;;;;;35.47;26.73;;;10.10;99.90;;;;;;5060657;28;20024;-83
2022/02/03 01:00:26;;;;;;;39.72;28.35;;;10.10;99.90;;;;;;5076295;28;20035;-83
2022/02/03 01:03:05;;;;;;;42.60;30.08;;;10.10;99.90;;;;;;5076345;28;20036;-82
2022/02/03 01:05:31;;;;;;;38.03;27.25;;;10.10;99.90;;;;;;5094400;28;20054;-83
2022/02/03 01:08:04;;;;;;;37.20;26.95;;;10.10;99.90;;;;;;5059758;28;20495;-83
2022/02/03 01:10:37;;;;;;;42.08;30.27;;;10.10;99.90;;;;;;5059930;28;20507;-83
2022/02/03 01:13:19;;;;;;;41.25;27.75;;;10.20;99.90;;;;;;5077362;28;20024;-83
2022/02/03 01:16:01;;;;;;;42.88;29.75;;;10.10;99.90;;;;;;5078839;28;20024;-83
2022/02/03 01:34:29;;;;;;;47.38;32.53;;;10.10;99.90;;;;;;5094087;28;20464;-83
2022/02/03 01:37:20;;;;;;;47.05;32.13;;;10.20;99.90;;;;;;5093931;28;20082;-83
2022/02/03 01:45:23;;;;;;;50.72;33.70;;;10.20;99.90;;;;;;5076869;28;20058;-83
2022/02/03 01:48:05;;;;;;;51.63;34.15;;;10.20;99.90;;;;;;5046893;28;20024;-84
2022/02/03 01:53:21;;;;;;;48.03;33.38;;;10.20;99.90;;;;;;5093586;28;20047;-83
2022/02/03 01:55:53;;;;;;;51.90;34.35;;;10.20;99.90;;;;;;5093327;28;20313;-83
2022/02/03 01:58:30;;;;;;;51.45;33.25;;;10.10;99.90;;;;;;5094027;28;20038;-83
2022/02/03 02:01:01;;;;;;;47.30;32.40;;;10.20;99.90;;;;;;5093558;28;20016;-83
2022/02/03 02:04:07;;;;;;;44.83;31.52;;;10.20;99.90;;;;;;5075200;28;20468;-83
2022/02/03 02:06:41;;;;;;;45.38;29.77;;;10.20;99.90;;;;;;5029813;28;20044;-83
2022/02/03 02:09:45;;;;;;;46.15;32.78;;;10.20;99.90;;;;;;5068223;28;20465;-83
2022/02/03 02:12:36;;;;;;;43.70;30.20;;;10.20;99.90;;;;;;5071817;28;20032;-83
2022/02/03 02:40:32;;;;;;;49.95;33.00;;;10.10;99.90;;;;;;5071930;28;20036;-84
2022/02/03 02:43:05;;;;;;;48.85;32.53;;;10.10;99.90;;;;;;5071372;28;20079;-83
2022/02/03 02:45:48;;;;;;;47.45;33.42;;;10.10;99.90;;;;;;5072785;28;20472;-83
2022/02/03 02:48:35;;;;;;;48.63;33.83;;;10.10;99.90;;;;;;5054976;28;20036;-84
2022/02/03 02:51:10;;;;;;;45.63;31.35;;;10.10;99.90;;;;;;5054788;28;20025;-83
2022/02/03 02:56:27;;;;;;;46.17;33.05;;;10.10;99.90;;;;;;5072650;28;20052;-83
2022/02/03 03:33:05;;;;;;;38.80;25.40;;;10.00;99.90;;;;;;5060828;28;20113;-83
2022/02/03 03:35:42;;;;;;;39.95;23.90;;;10.00;99.90;;;;;;5095930;28;20062;-83
2022/02/03 03:38:09;;;;;;;36.42;23.48;;;10.00;99.90;;;;;;5077989;28;20368;-83
2022/02/03 03:40:38;;;;;;;39.55;24.80;;;9.90;99.90;;;;;;5077870;28;20042;-83
2022/02/03 03:43:14;;;;;;;37.22;24.65;;;9.90;99.90;;;;;;5096140;28;20036;-83
2022/02/03 03:45:51;;;;;;;32.40;22.45;;;10.00;99.90;;;;;;5096079;28;20020;-84
2022/02/03 03:48:18;;;;;;;37.05;24.02;;;9.90;99.90;;;;;;5078072;28;20535;-83
2022/02/03 03:50:50;;;;;;;33.00;24.25;;;9.90;99.90;;;;;;5095914;28;20020;-83
2022/02/03 03:53:27;;;;;;;32.95;22.70;;;9.90;99.90;;;;;;5077592;28;20024;-83
2022/02/03 03:56:25;;;;;;;37.53;23.40;;;9.90;99.90;;;;;;5077695;28;20039;-84
2022/02/03 04:51:08;;;;;;;34.40;22.08;;;9.80;99.90;;;;;;5094365;28;20050;-83
2022/02/03 05:02:25;;;;;;;24.52;16.95;;;9.70;99.90;;;;;;5074012;28;20036;-83
2022/02/03 05:05:13;;;;;;;22.58;15.55;;;9.70;99.90;;;;;;5055821;28;20043;-83
2022/02/03 05:14:44;;;;;;;22.65;13.65;;;9.60;99.90;;;;;;5073729;28;20081;-83
2022/02/03 05:17:34;;;;;;;21.35;13.48;;;9.60;99.90;;;;;;5073405;28;20496;-83
2022/02/03 05:20:40;;;;;;;23.10;15.40;;;9.60;99.90;;;;;;5054751;28;20028;-83
2022/02/03 05:54:53;;;;;;;18.75;13.70;;;9.40;99.90;;;;;;5073176;28;20064;-84
2022/02/03 06:08:00;;;;;;;18.02;14.35;;;9.40;99.90;;;;;;5055081;28;20094;-84
2022/02/03 06:13:27;;;;;;;21.17;13.68;;;9.40;99.90;;;;;;5073306;28;20058;-83
2022/02/03 06:16:19;;;;;;;20.65;13.00;;;9.40;99.90;;;;;;5064224;28;20036;-85
2022/02/03 06:29:21;;;;;;;15.90;9.73;;;9.30;99.90;;;;;;5092419;28;20491;-85
2022/02/03 06:31:49;;;;;;;16.17;9.10;;;9.30;99.90;;;;;;5076468;28;20535;-83
2022/02/03 06:34:15;;;;;;;16.23;7.47;;;9.30;99.90;;;;;;5062725;28;20494;-85
2022/02/03 06:36:41;;;;;;;14.55;8.13;;;9.30;99.90;;;;;;5062682;28;20020;-83
2022/02/03 06:39:27;;;;;;;13.63;7.38;;;9.30;99.90;;;;;;5079047;28;20020;-83
2022/02/03 06:41:57;;;;;;;18.02;7.75;;;9.30;99.90;;;;;;5062240;28;20037;-83
2022/02/03 06:44:33;;;;;;;15.70;6.53;;;9.30;99.90;;;;;;5078876;28;20050;-83
2022/02/03 06:47:06;;;;;;;12.98;5.82;;;9.20;99.90;;;;;;5078888;28;20032;-84
2022/02/03 06:49:44;;;;;;;11.48;5.65;;;9.20;99.90;;;;;;5080165;28;20016;-84
2022/02/03 06:52:16;;;;;;;14.13;4.85;;;9.20;99.90;;;;;;5064148;28;20038;-83
2022/02/03 06:57:17;;;;;;;13.93;5.32;;;9.20;99.90;;;;;;5078862;28;20066;-83
2022/02/03 06:59:56;;;;;;;12.00;3.80;;;9.20;99.90;;;;;;5078000;28;20032;-85
2022/02/03 07:02:26;;;;;;;8.43;3.70;;;9.20;99.90;;;;;;5078527;28;20029;-83
2022/02/03 07:04:52;;;;;;;10.48;3.83;;;9.20;99.90;;;;;;5078543;28;20051;-84
2022/02/03 07:07:18;;;;;;;11.70;5.35;;;9.20;99.90;;;;;;5061592;28;20066;-83
2022/02/03 07:09:48;;;;;;;8.07;4.00;;;9.10;99.90;;;;;;5078460;28;20107;-84
2022/02/03 07:12:13;;;;;;;6.28;3.47;;;9.10;99.90;;;;;;5060929;28;20422;-83
2022/02/03 07:14:39;;;;;;;7.32;3.63;;;9.10;99.90;;;;;;5061659;28;20032;-84
2022/02/03 07:17:05;;;;;;;7.68;3.80;;;9.10;99.90;;;;;;5061560;28;20114;-84
2022/02/03 07:19:35;;;;;;;9.93;4.10;;;9.10;99.90;;;;;;5078315;28;20510;-83
2022/02/03 07:22:01;;;;;;;10.85;4.55;;;9.10;99.90;;;;;;5078133;28;20119;-83
2022/02/03 07:24:27;;;;;;;8.98;4.20;;;9.10;99.90;;;;;;5096481;28;20452;-84
2022/02/03 07:26:52;;;;;;;10.93;4.60;;;9.10;99.90;;;;;;5077877;28;20372;-85
2022/02/03 07:29:18;;;;;;;9.40;4.75;;;9.10;99.90;;;;;;5044802;28;20028;-84
2022/02/03 07:31:45;;;;;;;11.60;4.63;;;9.10;99.90;;;;;;5061411;28;20048;-83
2022/02/03 07:34:13;;;;;;;23.70;5.07;;;9.10;99.90;;;;;;5078156;28;20032;-84
2022/02/03 07:36:39;;;;;;;13.40;4.80;;;9.10;99.90;;;;;;5078154;28;20020;-83
2022/02/03 07:39:06;;;;;;;10.32;5.38;;;9.10;99.90;;;;;;5096201;28;20020;-83
2022/02/03 07:41:32;;;;;;;9.32;4.93;;;9.10;99.90;;;;;;5061637;28;20028;-83
2022/02/03 07:43:58;;;;;;;12.35;6.07;;;9.10;99.90;;;;;;5060297;28;20031;-84
2022/02/03 07:46:24;;;;;;;11.35;5.68;;;9.10;99.90;;;;;;5077949;28;20115;-83
2022/02/03 07:48:52;;;;;;;10.57;5.88;;;9.10;99.90;;;;;;5086596;28;20378;-83
2022/02/03 07:51:18;;;;;;;11.18;5.57;;;9.10;99.90;;;;;;5058011;28;20098;-84
2022/02/03 07:53:44;;;;;;;15.70;6.40;;;9.10;99.90;;;;;;5040804;28;20115;-84
2022/02/03 07:56:10;;;;;;;13.98;7.18;;;9.00;99.90;;;;;;5043584;28;20457;-83
2022/02/03 07:58:36;;;;;;;10.70;6.53;;;9.10;99.90;;;;;;5095845;28;20020;-86
2022/02/03 08:01:01;;;;;;;13.88;6.90;;;9.00;99.90;;;;;;5076945;28;20024;-84
2022/02/03 08:03:27;;;;;;;13.07;7.38;;;9.00;99.90;;;;;;5062041;28;20116;-83
2022/02/03 08:06:04;;;;;;;12.82;7.22;;;9.00;99.90;;;;;;5075744;28;20483;-84
2022/02/03 08:08:38;;;;;;;11.00;7.05;;;9.00;99.90;;;;;;5057400;28;20469;-83
2022/02/03 08:11:09;;;;;;;10.73;7.07;;;9.00;99.90;;;;;;5057778;28;20028;-83
2022/02/03 08:13:44;;;;;;;12.83;7.37;;;9.10;99.90;;;;;;5041312;28;20392;-83
2022/02/03 08:16:20;;;;;;;15.00;7.75;;;9.10;99.90;;;;;;5042785;28;20266;-83
2022/02/03 08:18:50;;;;;;;12.63;6.80;;;9.00;99.90;;;;;;5058709;28;20021;-83
2022/02/03 08:21:17;;;;;;;14.45;7.18;;;9.10;99.90;;;;;;5057986;28;20025;-83
2022/02/03 08:31:40;;;;;;;13.43;7.32;;;9.10;99.90;;;;;;5074673;28;20049;-83
2022/02/03 08:34:10;;;;;;;13.07;7.28;;;9.10;99.90;;;;;;5046538;28;20070;-83
2022/02/03 08:36:36;;;;;;;11.80;7.30;;;9.10;99.90;;;;;;5077458;28;20020;-84
2022/02/03 08:39:07;;;;;;;13.23;7.50;;;9.10;99.90;;;;;;5059844;28;20051;-83
2022/02/03 08:41:33;;;;;;;14.68;7.38;;;9.10;99.90;;;;;;5076858;28;20025;-83
2022/02/03 08:43:59;;;;;;;12.88;6.82;;;9.10;99.90;;;;;;5076742;28;20032;-83
2022/02/03 08:46:26;;;;;;;10.80;6.68;;;9.10;99.90;;;;;;5094888;28;20471;-83
2022/02/03 08:48:53;;;;;;;13.93;7.68;;;9.10;99.90;;;;;;5060277;28;20028;-82
2022/02/03 08:51:20;;;;;;;14.35;7.68;;;9.10;99.90;;;;;;5076636;28;20161;-83
2022/02/03 08:53:55;;;;;;;17.85;8.05;;;9.10;99.90;;;;;;5060084;28;20124;-83
2022/02/03 09:56:11;;;;;;;11.80;6.97;;;9.10;99.90;;;;;;5093748;28;20043;-83
2022/02/03 09:58:53;;;;;;;14.07;7.03;;;9.10;99.90;;;;;;5061965;28;20032;-84
2022/02/03 10:01:30;;;;;;;11.57;7.40;;;9.00;99.90;;;;;;5076290;28;20033;-84
2022/02/03 10:04:09;;;;;;;13.70;7.03;;;9.00;99.90;;;;;;5096439;28;20043;-83
2022/02/03 10:06:49;;;;;;;13.30;7.43;;;9.10;99.90;;;;;;5075232;28;20051;-83
2022/02/03 10:09:15;;;;;;;13.07;7.43;;;9.10;99.90;;;;;;5074818;28;20016;-84
2022/02/03 10:11:41;;;;;;;10.75;6.75;;;9.10;99.90;;;;;;5081320;28;20027;-85
2022/02/03 10:14:06;;;;;;;10.55;6.55;;;9.10;99.90;;;;;;5084446;28;20110;-89
2022/02/03 10:16:37;;;;;;;12.93;7.13;;;9.10;99.90;;;;;;5088289;28;20033;-86
2022/02/03 10:19:09;;;;;;;12.18;6.50;;;9.00;99.90;;;;;;5097596;28;20073;-83
2022/02/03 10:21:35;;;;;;;11.02;6.93;;;9.00;99.90;;;;;;5075681;28;20016;-83
2022/02/03 10:24:07;;;;;;;13.25;6.85;;;9.00;99.90;;;;;;5075016;28;20429;-83
2022/02/03 10:26:39;;;;;;;17.42;6.55;;;9.00;99.90;;;;;;5074981;28;20027;-83
2022/02/03 10:29:06;;;;;;;13.70;6.43;;;9.00;99.90;;;;;;5093175;28;20028;-83
2022/02/03 10:31:38;;;;;;;15.63;6.85;;;9.00;99.90;;;;;;5092984;28;20048;-84
2022/02/03 10:34:09;;;;;;;17.83;6.70;;;9.00;99.90;;;;;;5093225;28;20028;-82
2022/02/03 10:36:41;;;;;;;;;;;9.00;99.90;;;;;;5093482;28;20494;-83
2022/02/03 10:45:11;;;;;;;10.68;6.85;;;8.90;99.90;;;;;;5077508;28;20040;-83
2022/02/03 11:08:48;;;;;;;12.48;6.40;;;9.00;99.90;;;;;;5077059;28;20044;-84
2022/02/03 11:11:19;;;;;;;17.35;6.47;;;9.00;99.90;;;;;;5092808;28;20090;-84
2022/02/03 11:13:45;;;;;;;12.25;6.07;;;9.00;99.90;;;;;;5092480;28;20032;-83
2022/02/03 11:16:12;;;;;;;12.82;5.95;;;9.00;99.90;;;;;;5087483;28;20023;-84
2022/02/03 11:18:41;;;;;;;11.27;6.45;;;9.00;99.90;;;;;;5055511;28;20028;-85
2022/02/03 11:21:07;;;;;;;13.43;6.78;;;9.10;99.90;;;;;;5042050;28;20017;-85
2022/02/03 11:23:49;;;;;;;13.23;6.47;;;9.10;99.90;;;;;;5075940;28;20033;-83
2022/02/03 12:07:46;;;;;;;16.10;8.05;;;9.20;99.90;;;;;;5058870;28;20101;-86
2022/02/03 12:16:33;;;;;;;14.98;7.10;;;9.20;99.90;;;;;;5012751;28;20398;-83
2022/02/03 12:21:59;;;;;;;15.63;7.28;;;9.20;99.90;;;;;;5095226;28;20115;-83
2022/02/03 12:24:45;;;;;;;13.98;7.68;;;9.30;99.90;;;;;;5062202;28;20032;-85
2022/02/03 12:28:07;;;;;;;14.82;7.10;;;9.30;99.90;;;;;;5077063;28;20024;-83
2022/02/03 12:30:24;;;;;;;15.40;7.85;;;9.40;99.90;;;;;;5083792;28;20028;-85
2022/02/03 12:38:34;;;;;;;;;;;9.50;99.90;;;;;;5059894;28;20073;-83
2022/02/03 12:41:12;;;;;;;14.23;6.65;;;9.50;99.90;;;;;;5062243;28;19923;-83
2022/02/03 12:43:41;;;;;;;15.10;6.53;;;9.50;99.90;;;;;;5073325;28;20124;-83
2022/02/03 12:46:07;;;;;;;12.80;6.00;;;9.40;99.90;;;;;;5057194;28;20469;-83
2022/02/03 12:48:35;;;;;;;10.82;6.05;;;9.50;99.90;;;;;;5073263;28;20457;-82
2022/02/03 12:51:02;;;;;;;12.10;5.75;;;9.40;99.90;;;;;;5073167;28;20411;-83
2022/02/03 12:53:38;;;;;;;10.70;6.45;;;9.40;99.90;;;;;;5055433;28;20095;-83
2022/02/03 12:56:06;;;;;;;14.82;6.50;;;9.40;99.90;;;;;;5052903;28;20028;-83
2022/02/03 12:58:42;;;;;;;17.40;6.35;;;9.40;99.90;;;;;;5036736;28;20124;-83
2022/02/03 13:01:16;;;;;;;11.68;5.35;;;9.40;99.90;;;;;;5053007;28;20025;-83
2022/02/03 13:03:50;;;;;;;13.68;6.18;;;9.40;99.90;;;;;;5054228;28;20043;-84
2022/02/03 13:06:20;;;;;;;14.07;5.88;;;9.30;99.90;;;;;;5053043;28;20431;-82
2022/02/03 13:08:49;;;;;;;12.38;5.68;;;9.30;99.90;;;;;;5052982;28;20028;-84
2022/02/03 13:11:26;;;;;;;11.68;6.13;;;9.30;99.90;;;;;;5036889;28;20029;-83
2022/02/03 13:14:45;;;;;;;13.52;6.40;;;9.30;99.90;;;;;;5052905;28;20441;-85
2022/02/03 13:17:16;;;;;;;10.25;5.50;;;9.30;99.90;;;;;;4978184;28;20074;-83
2022/02/03 13:19:54;;;;;;;;;;;9.20;99.90;;;;;;4977023;28;20037;-84
2022/02/03 13:27:52;;;;;;;10.47;5.30;;;9.20;99.90;;;;;;5053885;28;20025;-83
2022/02/03 13:30:58;;;;;;;9.90;5.68;;;9.20;99.90;;;;;;5052364;28;20025;-83
2022/02/03 13:33:33;;;;;;;11.05;6.03;;;9.20;99.90;;;;;;5052205;28;20048;-88
2022/02/03 13:36:16;;;;;;;15.82;5.90;;;9.20;99.90;;;;;;5052447;28;20021;-84
2022/02/03 13:41:18;;;;;;;11.77;5.25;;;9.20;99.90;;;;;;5051833;28;20029;-83
2022/02/03 13:43:45;;;;;;;13.38;5.10;;;9.20;99.90;;;;;;5053643;28;20025;-83
2022/02/03 13:46:24;;;;;;;11.68;5.25;;;9.20;99.90;;;;;;5052191;28;20032;-83
2022/02/03 13:48:51;;;;;;;9.35;5.50;;;9.20;99.90;;;;;;5052399;28;20453;-86
2022/02/03 13:51:17;;;;;;;12.50;6.10;;;9.20;99.90;;;;;;5035765;28;20397;-83
2022/02/03 13:53:52;;;;;;;12.60;7.63;;;9.20;99.90;;;;;;5051997;28;20037;-84
2022/02/03 14:28:20;;;;;;;10.02;5.53;;;9.10;99.90;;;;;;5058082;28;20040;-83
2022/02/03 14:30:49;;;;;;;12.18;6.38;;;9.10;99.90;;;;;;5055061;28;20025;-84
2022/02/03 14:33:26;;;;;;;16.38;7.80;;;9.10;99.90;;;;;;5055056;28;20456;-83
2022/02/03 14:35:52;;;;;;;12.38;7.07;;;9.00;99.90;;;;;;5056460;28;20373;-83
2022/02/03 14:38:26;;;;;;;13.20;7.72;;;9.00;99.90;;;;;;5038660;28;20024;-83
2022/02/03 14:41:12;;;;;;;13.75;8.45;;;9.00;99.90;;;;;;5039681;28;20043;-82
2022/02/03 14:43:37;;;;;;;12.75;8.63;;;9.00;99.90;;;;;;5057470;28;20029;-83
2022/02/03 14:46:06;;;;;;;15.38;8.68;;;8.90;99.90;;;;;;5022276;28;20025;-83
2022/02/03 14:48:31;;;;;;;13.55;8.82;;;8.90;99.90;;;;;;5038661;28;20453;-85
2022/02/03 14:50:59;;;;;;;14.15;8.02;;;8.90;99.90;;;;;;5046682;28;20051;-83
2022/02/03 14:53:48;;;;;;;15.02;8.57;;;9.00;99.90;;;;;;5041464;28;20051;-83
2022/02/03 14:58:58;;;;;;;14.45;8.45;;;8.90;99.90;;;;;;5061478;28;20039;-84
2022/02/03 15:01:23;;;;;;;13.38;7.63;;;8.90;99.90;;;;;;5042453;28;20029;-82
2022/02/03 15:03:54;;;;;;;13.00;8.68;;;8.80;99.90;;;;;;5058034;28;20047;-83
2022/02/03 15:06:23;;;;;;;13.20;7.60;;;8.80;99.90;;;;;;5059286;28;20119;-83
2022/02/03 15:11:58;;;;;;;15.55;8.55;;;8.80;99.90;;;;;;5011739;28;20666;-83
2022/02/03 15:14:24;;;;;;;14.43;8.68;;;8.70;99.90;;;;;;5018215;28;20391;-83
2022/02/03 15:16:50;;;;;;;15.48;9.15;;;8.80;99.90;;;;;;5044351;28;20056;-83
2022/02/03 15:19:15;;;;;;;16.02;8.18;;;8.80;99.90;;;;;;5058299;28;20029;-83
2022/02/03 15:21:41;;;;;;;19.35;9.43;;;8.80;99.90;;;;;;5041741;28;20471;-83
2022/02/03 15:24:08;;;;;;;17.70;7.72;;;8.80;99.90;;;;;;5041652;28;20524;-83
2022/02/03 15:26:34;;;;;;;17.73;9.00;;;8.80;99.90;;;;;;5075739;28;20024;-83
2022/02/03 15:28:59;;;;;;;14.98;8.40;;;8.80;99.90;;;;;;5058170;28;20448;-83
2022/02/03 15:31:30;;;;;;;15.68;7.95;;;8.80;99.90;;;;;;5050263;28;20032;-83
2022/02/03 15:34:06;;;;;;;13.93;7.78;;;8.80;99.90;;;;;;5037635;28;20056;-83
2022/02/03 15:36:36;;;;;;;18.40;8.98;;;8.80;99.90;;;;;;5037681;28;20029;-82
2022/02/03 15:39:12;;;;;;;15.50;7.78;;;8.70;99.90;;;;;;5038403;28;20021;-85
2022/02/03 15:41:39;;;;;;;16.98;8.57;;;8.70;99.90;;;;;;5022283;28;20032;-84
2022/02/03 15:44:05;;;;;;;14.70;8.15;;;8.70;99.90;;;;;;5045957;28;20473;-83
2022/02/03 15:46:34;;;;;;;13.63;8.18;;;8.60;99.90;;;;;;5048559;28;20033;-83
2022/02/03 16:16:50;;;;;;;17.83;9.23;;;8.60;99.90;;;;;;5054932;28;20060;-83
2022/02/03 16:18:35;;;;;;;13.20;8.77;;;8.70;99.90;;;;;;5038607;28;20039;-82
2022/02/03 16:21:14;;;;;;;14.02;9.80;;;8.60;99.90;;;;;;5054931;28;20112;-82
2022/02/03 16:50:58;;;;;;;17.77;10.88;;;8.70;99.90;;;;;;5039640;28;20083;-84
2022/02/03 16:53:24;;;;;;;17.40;11.70;;;8.70;99.90;;;;;;5067847;28;20032;-81
2022/02/03 16:55:49;;;;;;;16.40;11.57;;;8.70;99.90;;;;;;5060792;28;20076;-82
2022/02/03 16:58:15;;;;;;;18.60;12.90;;;8.70;99.90;;;;;;5049116;28;20112;-84
2022/02/03 17:00:43;;;;;;;19.33;12.15;;;8.70;99.90;;;;;;5066795;28;20058;-83
2022/02/03 17:03:09;;;;;;;19.02;12.75;;;8.70;99.90;;;;;;5063164;28;20452;-81
2022/02/03 17:05:37;;;;;;;20.55;12.60;;;8.70;99.90;;;;;;5047994;28;20025;-85
2022/02/03 17:08:05;;;;;;;16.27;12.10;;;8.60;99.90;;;;;;5087193;28;20036;-84
2022/02/03 17:10:30;;;;;;;17.27;12.77;;;8.70;99.90;;;;;;5092553;28;20044;-86
2022/02/03 17:12:56;;;;;;;20.60;13.50;;;8.70;99.90;;;;;;5093948;28;20028;-84
2022/02/03 17:15:22;;;;;;;19.42;13.50;;;8.70;99.90;;;;;;5077333;28;20028;-84
2022/02/03 17:17:50;;;;;;;22.23;14.77;;;8.60;99.90;;;;;;5057653;28;20001;-90
2022/02/03 17:20:21;;;;;;;24.48;15.60;;;8.70;99.90;;;;;;5089663;28;20016;-88
2022/02/03 17:22:50;;;;;;;21.27;14.75;;;8.60;99.90;;;;;;5091081;28;20025;-84
2022/02/03 17:25:28;;;;;;;24.00;15.02;;;8.60;99.90;;;;;;5084743;28;20025;-85
2022/02/03 17:28:21;;;;;;;20.80;14.48;;;8.60;99.90;;;;;;5060943;28;20103;-83
2022/02/03 17:30:57;;;;;;;20.75;14.73;;;8.60;99.90;;;;;;5052229;28;20442;-83
2022/02/03 18:08:58;;;;;;;27.77;17.90;;;8.60;99.90;;;;;;5067276;28;19939;-83
2022/02/03 18:11:44;;;;;;;27.20;19.75;;;8.60;99.90;;;;;;5054046;28;20048;-82
2022/02/03 18:35:55;;;;;;;27.40;20.77;;;8.70;99.90;;;;;;5076172;28;20457;-83
2022/02/03 18:51:30;;;;;;;28.80;21.75;;;8.60;99.90;;;;;;5071732;28;20067;-84
2022/02/03 18:56:53;;;;;;;27.40;20.35;;;8.60;99.90;;;;;;5072139;28;20048;-82
2022/02/03 19:23:57;;;;;;;28.35;21.17;;;8.60;99.90;;;;;;5044309;28;20043;-84
2022/02/03 20:08:59;;;;;;;30.42;22.65;;;8.60;99.90;;;;;;5056691;28;20036;-84
2022/02/03 20:11:25;;;;;;;29.95;22.30;;;8.60;99.90;;;;;;5056220;28;20062;-84
2022/02/03 20:13:51;;;;;;;29.77;21.98;;;8.60;99.90;;;;;;5039046;28;20484;-84
2022/02/03 20:16:20;;;;;;;32.33;23.13;;;8.60;99.90;;;;;;5044611;28;20036;-82
2022/02/03 20:18:46;;;;;;;32.28;23.05;;;8.60;99.90;;;;;;5034346;28;20489;-83
2022/02/03 20:21:12;;;;;;;30.98;22.55;;;8.60;99.90;;;;;;5057252;28;20040;-83
2022/02/03 20:23:42;;;;;;;32.40;23.20;;;8.60;99.90;;;;;;5075244;28;20040;-83
2022/02/03 20:26:09;;;;;;;28.50;21.65;;;8.60;99.90;;;;;;5057296;28;20419;-90
2022/02/03 20:28:35;;;;;;;33.00;24.73;;;8.60;99.90;;;;;;5057892;28;20028;-84
2022/02/03 20:31:01;;;;;;;30.98;23.42;;;8.50;99.90;;;;;;5056922;28;20027;-82
2022/02/03 20:33:27;;;;;;;32.53;24.00;;;8.60;99.90;;;;;;5074893;28;20143;-83
2022/02/03 20:36:11;;;;;;;33.15;23.90;;;8.60;99.90;;;;;;5075244;28;20029;-84
2022/02/03 20:38:37;;;;;;;35.40;25.85;;;8.50;99.90;;;;;;5075202;28;20549;-84
2022/02/03 20:41:03;;;;;;;36.95;25.77;;;8.50;99.90;;;;;;5075235;28;20116;-83
2022/02/03 20:43:29;;;;;;;31.42;24.63;;;8.50;99.90;;;;;;5056807;28;20044;-83
2022/02/03 20:45:54;;;;;;;35.65;25.38;;;8.50;99.90;;;;;;5057249;28;20037;-83
2022/02/03 20:48:21;;;;;;;37.05;25.95;;;8.50;99.90;;;;;;5058220;28;20020;-82
2022/02/03 20:50:49;;;;;;;36.53;26.70;;;8.50;99.90;;;;;;5026886;28;20109;-84
2022/02/03 20:53:15;;;;;;;35.80;25.58;;;8.50;99.90;;;;;;5076859;28;20031;-83
2022/02/03 20:55:43;;;;;;;35.15;26.10;;;8.50;99.90;;;;;;5077574;28;20465;-83
2022/02/03 20:58:13;;;;;;;34.95;26.70;;;8.50;99.90;;;;;;5077617;28;20508;-82
2022/02/03 21:00:46;;;;;;;37.20;26.15;;;8.50;99.90;;;;;;5060633;28;20162;-83
2022/02/03 21:03:38;;;;;;;43.58;29.08;;;8.50;99.90;;;;;;5095676;28;20064;-87
2022/02/03 21:05:58;;;;;;;41.33;28.35;;;8.50;99.90;;;;;;5081526;28;20017;-84
2022/02/03 21:08:30;;;;;;;40.15;27.27;;;8.50;99.90;;;;;;5061902;28;20032;-83
2022/02/03 21:10:56;;;;;;;42.42;29.20;;;8.50;99.90;;;;;;5097087;28;20021;-83
2022/02/03 21:13:22;;;;;;;39.47;27.63;;;8.50;99.90;;;;;;5061423;28;20422;-83
2022/02/03 21:15:47;;;;;;;41.05;28.70;;;8.50;99.90;;;;;;5069210;28;20046;-82
2022/02/03 21:18:16;;;;;;;38.92;27.27;;;8.50;99.90;;;;;;5059108;28;20025;-84
2022/02/03 21:20:42;;;;;;;41.42;28.63;;;8.60;99.90;;;;;;5041547;28;20025;-84
2022/02/03 21:23:10;;;;;;;38.60;27.25;;;8.60;99.90;;;;;;5041948;28;20127;-84
2022/02/03 21:25:40;;;;;;;39.42;28.55;;;8.60;99.90;;;;;;5036853;28;20024;-84
2022/02/03 21:28:15;;;;;;;39.53;28.90;;;8.50;99.90;;;;;;5074466;28;20020;-84
2022/02/03 21:30:42;;;;;;;40.38;29.05;;;8.60;99.90;;;;;;5074982;28;20029;-84
2022/02/03 21:33:13;;;;;;;41.63;29.55;;;8.60;99.90;;;;;;5054799;28;20519;-84
2022/02/03 21:35:40;;;;;;;43.60;29.85;;;8.60;99.90;;;;;;5060368;28;20107;-84
2022/02/03 21:38:06;;;;;;;43.42;30.30;;;8.60;99.90;;;;;;5094901;28;20023;-82
2022/02/03 21:40:32;;;;;;;44.03;28.45;;;8.60;99.90;;;;;;5075549;28;20016;-83
2022/02/03 21:43:01;;;;;;;41.85;29.20;;;8.60;99.90;;;;;;5058891;28;20020;-84
2022/02/03 21:45:27;;;;;;;38.90;28.60;;;8.60;99.90;;;;;;5093643;28;20054;-84
2022/02/03 21:47:53;;;;;;;43.35;30.10;;;8.60;99.90;;;;;;5075052;28;20020;-84
2022/02/03 21:50:19;;;;;;;41.35;28.77;;;8.60;99.90;;;;;;5093640;28;20381;-84
2022/02/03 21:52:51;;;;;;;41.45;28.80;;;8.70;99.90;;;;;;5075361;28;20024;-84
2022/02/03 21:55:18;;;;;;;40.38;29.08;;;8.60;99.90;;;;;;5075375;28;20028;-88
2022/02/03 21:57:48;;;;;;;40.50;30.17;;;8.70;99.90;;;;;;5075265;28;20031;-84
2022/02/03 22:00:16;;;;;;;42.15;30.20;;;8.60;99.90;;;;;;5093965;28;20035;-84
2022/02/03 22:02:43;;;;;;;39.67;30.13;;;8.60;99.90;;;;;;5091908;28;20031;-84
2022/02/03 22:05:12;;;;;;;37.33;28.40;;;8.60;99.90;;;;;;5073456;28;20164;-86
2022/02/03 22:07:42;;;;;;;43.83;29.00;;;8.70;99.90;;;;;;5088622;28;20039;-85
2022/02/03 22:10:11;;;;;;;41.90;29.05;;;8.70;99.90;;;;;;5058716;28;20017;-85
2022/02/03 22:12:36;;;;;;;40.30;29.60;;;8.60;99.90;;;;;;5070338;28;20031;-85
2022/02/03 22:15:05;;;;;;;38.90;28.75;;;8.70;99.90;;;;;;5057755;28;20380;-83
2022/02/03 22:17:31;;;;;;;40.88;29.42;;;8.70;99.90;;;;;;5073917;28;20384;-83
2022/02/03 22:20:00;;;;;;;40.10;28.45;;;8.60;99.90;;;;;;5087742;28;20079;-84
2022/02/03 22:25:22;;;;;;;38.00;27.75;;;8.70;99.90;;;;;;5067869;28;20429;-85
2022/02/03 22:48:56;;;;;;;37.92;27.65;;;8.70;99.90;;;;;;5090215;28;20092;-84
2022/02/03 22:51:22;;;;;;;38.70;27.88;;;8.60;99.90;;;;;;5081004;28;20028;-92
2022/02/03 22:53:47;;;;;;;40.75;28.65;;;8.60;99.90;;;;;;5062344;28;20362;-83
2022/02/03 22:56:15;;;;;;;38.05;27.55;;;8.70;99.90;;;;;;5048245;28;20028;-84
2022/02/03 23:01:25;;;;;;;40.80;29.20;;;8.60;99.90;;;;;;5067169;28;20046;-84
2022/02/03 23:03:51;;;;;;;37.72;26.50;;;8.60;99.90;;;;;;5047567;28;20420;-84
2022/02/03 23:06:18;;;;;;;35.03;27.08;;;8.70;99.90;;;;;;5064493;28;20361;-84
2022/02/03 23:11:51;;;;;;;35.45;27.02;;;8.70;99.90;;;;;;5067780;28;20153;-84
2022/02/03 23:14:40;;;;;;;37.55;26.13;;;8.70;99.90;;;;;;5089230;28;20059;-84
2022/02/03 23:17:33;;;;;;;38.83;27.85;;;8.70;99.90;;;;;;5092892;28;20033;-84
2022/02/03 23:20:12;;;;;;;38.75;27.45;;;8.70;99.90;;;;;;5083880;28;20032;-84
2022/02/03 23:22:38;;;;;;;37.70;27.45;;;8.70;99.90;;;;;;5090065;28;20028;-84
2022/02/03 23:25:09;;;;;;;41.42;27.77;;;8.60;99.90;;;;;;5075291;28;20028;-84
2022/02/03 23:30:19;;;;;;;38.72;27.27;;;8.70;99.90;;;;;;5093787;28;20070;-84
2022/02/03 23:32:45;;;;;;;38.38;26.80;;;8.70;99.90;;;;;;5084707;28;20480;-84
2022/02/03 23:37:40;;;;;;;39.53;27.63;;;8.70;99.90;;;;;;5085803;28;20036;-84
2022/02/03 23:45:23;;;;;;;37.20;26.70;;;8.70;99.90;;;;;;5068551;28;20135;-83
